Time;durP1;ratioP1;P1;durP2;ratioP2;P2;SDS_P1;SDS_P2;PMS_P1;PMS_P2;Temp;Humidity;BMP_temperature;BMP_pressure;BME280_temperature;BME280_humidity;BME280_pressure;Samples;Min_cycle;Max_cycle;Signal;HPM_P1;HPM_P2
2023/07/01 00:01:30;;;;;;;11.10;6.20;;;;;;;18.26;100.00;98366.89;108135;1289;22240;-51
2023/07/01 00:03:56;;;;;;;7.40;6.10;;;;;;;18.24;100.00;98368.92;108156;1304;22230;-51
2023/07/01 00:06:21;;;;;;;8.10;6.60;;;;;;;18.21;99.98;98368.61;108164;1305;22216;-52
2023/07/01 00:08:47;;;;;;;10.00;6.40;;;;;;;18.18;99.99;98366.35;108159;1305;22220;-52
2023/07/01 00:11:13;;;;;;;12.30;6.10;;;;;;;18.15;100.00;98365.72;108186;1305;22336;-52
2023/07/01 00:13:38;;;;;;;7.60;5.90;;;;;;;18.13;99.99;98373.50;108173;1305;22117;-54
2023/07/01 00:16:04;;;;;;;11.60;6.90;;;;;;;18.12;99.88;98370.96;108169;1305;22229;-50
2023/07/01 00:18:30;;;;;;;7.10;6.20;;;;;;;18.11;100.00;98374.08;108181;1304;22271;-53
2023/07/01 00:20:55;;;;;;;9.80;6.50;;;;;;;18.11;100.00;98374.86;108178;1305;22921;-51
2023/07/01 00:23:21;;;;;;;10.60;6.60;;;;;;;18.08;100.00;98373.14;108143;1305;22211;-51
2023/07/01 00:25:47;;;;;;;13.80;6.60;;;;;;;18.06;100.00;98371.61;108171;1305;22241;-51
2023/07/01 00:28:12;;;;;;;9.70;6.90;;;;;;;18.02;100.00;98371.95;108187;1305;22219;-52
2023/07/01 00:30:37;;;;;;;8.40;6.30;;;;;;;18.00;100.00;98370.05;108157;1305;22213;-49
2023/07/01 00:33:05;;;;;;;10.40;7.00;;;;;;;17.98;100.00;98367.06;108134;1305;23169;-49
2023/07/01 00:35:30;;;;;;;;;;;;;;;17.93;100.00;98363.80;108178;1305;23324;-53
2023/07/01 00:37:55;;;;;;;9.00;6.60;;;;;;;17.88;100.00;98365.38;108145;1302;22226;-50
2023/07/01 00:40:20;;;;;;;9.40;6.70;;;;;;;17.82;100.00;98366.02;108156;1305;22224;-51
2023/07/01 00:42:46;;;;;;;9.50;6.50;;;;;;;17.81;100.00;98361.33;108137;1305;23426;-53
2023/07/01 00:45:11;;;;;;;9.40;6.80;;;;;;;17.82;100.00;98363.89;108157;1305;22226;-53
2023/07/01 00:47:40;;;;;;;7.70;6.90;;;;;;;17.81;100.00;98359.18;108140;1305;22959;-52
2023/07/01 00:50:09;;;;;;;9.50;6.20;;;;;;;17.79;100.00;98354.58;108159;1305;22108;-53
2023/07/01 00:52:35;;;;;;;7.50;6.70;;;;;;;17.78;100.00;98351.62;108175;1305;22241;-53
2023/07/01 00:55:00;;;;;;;14.70;6.60;;;;;;;17.78;100.00;98348.77;108169;1305;22384;-49
2023/07/01 00:57:26;;;;;;;10.40;6.50;;;;;;;17.74;100.00;98347.61;108172;1305;22259;-50
2023/07/01 00:59:51;;;;;;;8.50;6.70;;;;;;;17.73;100.00;98341.67;108163;1305;23415;-54
2023/07/01 01:02:23;;;;;;;10.50;6.50;;;;;;;17.76;100.00;98342.06;108151;1305;22230;-51
2023/07/01 01:05:02;;;;;;;8.30;7.10;;;;;;;17.77;100.00;98341.15;108169;1305;22226;-51
2023/07/01 01:07:57;;;;;;;7.30;6.60;;;;;;;17.78;100.00;98341.58;108189;1305;22488;-51
2023/07/01 01:10:24;;;;;;;7.40;6.60;;;;;;;17.79;100.00;98339.48;108177;1305;22229;-53
2023/07/01 01:12:56;;;;;;;8.60;7.40;;;;;;;17.79;100.00;98340.19;108173;1305;22584;-51
2023/07/01 01:15:22;;;;;;;9.10;7.30;;;;;;;17.79;100.00;98337.90;108174;1305;22936;-55
2023/07/01 01:17:51;;;;;;;12.00;7.70;;;;;;;17.79;100.00;98336.13;108154;1305;22202;-52
2023/07/01 01:20:20;;;;;;;7.90;7.10;;;;;;;17.80;100.00;98338.30;108197;1305;22341;-52
2023/07/01 01:22:55;;;;;;;11.40;7.50;;;;;;;17.81;100.00;98337.59;108181;1305;22225;-46
2023/07/01 01:25:39;;;;;;;7.40;6.50;;;;;;;17.79;100.00;98336.00;108179;1305;22231;-49
2023/07/01 01:28:05;;;;;;;10.00;7.00;;;;;;;17.77;100.00;98337.02;108172;1305;22264;-49
2023/07/01 01:30:32;;;;;;;13.00;7.60;;;;;;;17.77;100.00;98336.45;108150;1304;22414;-54
2023/07/01 01:32:57;;;;;;;7.40;6.60;;;;;;;17.78;100.00;98330.08;108163;1305;22281;-53
2023/07/01 01:35:23;;;;;;;8.80;6.90;;;;;;;17.76;100.00;98325.48;108159;1305;22224;-54
2023/07/01 01:38:03;;;;;;;9.20;6.70;;;;;;;17.76;100.00;98327.27;108176;1305;22238;-51
2023/07/01 01:40:44;;;;;;;10.80;6.80;;;;;;;17.75;100.00;98326.03;108188;1305;22884;-54
2023/07/01 01:43:34;;;;;;;7.80;7.00;;;;;;;17.75;100.00;98325.33;108150;1305;23021;-51
2023/07/01 01:46:01;;;;;;;14.60;8.10;;;;;;;17.73;100.00;98318.31;108199;1305;22946;-51
2023/07/01 01:48:27;;;;;;;9.10;7.50;;;;;;;17.74;100.00;98315.95;108150;1305;22152;-52
2023/07/01 01:50:56;;;;;;;10.50;7.90;;;;;;;17.73;100.00;98312.06;108194;1305;23178;-52
2023/07/01 01:53:24;;;;;;;11.00;8.20;;;;;;;17.71;100.00;98311.46;108176;1304;23052;-52
2023/07/01 01:55:50;;;;;;;9.80;8.30;;;;;;;17.70;100.00;98311.50;108176;1305;22999;-53
2023/07/01 01:58:16;;;;;;;10.00;7.90;;;;;;;17.68;100.00;98314.41;108184;1305;22889;-50
2023/07/01 02:00:41;;;;;;;12.50;7.30;;;;;;;17.68;100.00;98314.97;108176;1304;22176;-55
2023/07/01 02:03:07;;;;;;;11.30;7.80;;;;;;;17.65;100.00;98314.09;108154;1305;22403;-52
2023/07/01 02:05:32;;;;;;;9.60;7.50;;;;;;;17.63;100.00;98311.67;108147;1305;22217;-49
2023/07/01 02:08:01;;;;;;;9.00;7.70;;;;;;;17.61;100.00;98312.70;108170;1305;22255;-52
2023/07/01 02:10:27;;;;;;;9.00;8.00;;;;;;;17.60;100.00;98311.80;108183;1305;22262;-52
2023/07/01 02:12:53;;;;;;;10.70;8.00;;;;;;;17.60;100.00;98313.89;108164;1305;22222;-48
2023/07/01 02:15:18;;;;;;;9.70;7.80;;;;;;;17.60;100.00;98309.63;108168;1305;22415;-50
2023/07/01 02:17:43;;;;;;;10.00;8.40;;;;;;;17.62;100.00;98310.88;108153;1305;22229;-53
2023/07/01 02:20:09;;;;;;;9.00;7.90;;;;;;;17.63;100.00;98313.12;108165;1305;23128;-50
2023/07/01 02:22:35;;;;;;;10.50;8.50;;;;;;;17.62;100.00;98310.17;108158;1305;22264;-49
2023/07/01 02:25:00;;;;;;;9.40;8.10;;;;;;;17.59;100.00;98310.48;108188;1305;22441;-52
2023/07/01 02:27:25;;;;;;;13.20;9.40;;;;;;;17.58;100.00;98311.09;108154;1305;22255;-53
2023/07/01 02:29:51;;;;;;;14.70;8.50;;;;;;;17.59;100.00;98311.52;108177;1305;22410;-52
2023/07/01 02:32:16;;;;;;;13.30;8.70;;;;;;;17.59;100.00;98309.05;108173;1305;22202;-49
2023/07/01 02:34:41;;;;;;;15.80;8.50;;;;;;;17.58;100.00;98309.88;108170;1305;22437;-53
2023/07/01 02:37:07;;;;;;;11.80;8.20;;;;;;;17.59;100.00;98305.47;108169;1305;22143;-51
2023/07/01 02:39:32;;;;;;;11.30;8.60;;;;;;;17.63;100.00;98301.16;108154;1305;22375;-54
2023/07/01 02:41:57;;;;;;;11.50;8.60;;;;;;;17.64;100.00;98304.33;108162;1305;23047;-50
2023/07/01 02:44:23;;;;;;;12.00;8.70;;;;;;;17.64;100.00;98303.45;108164;1305;22381;-54
2023/07/01 02:49:45;;;;;;;16.20;8.60;;;;;;;17.68;100.00;98307.50;106926;1305;557463;-48
2023/07/01 02:52:11;;;;;;;13.60;8.30;;;;;;;17.65;100.00;98307.91;107406;1312;22344;-50
2023/07/01 02:54:41;;;;;;;11.60;8.30;;;;;;;17.64;100.00;98312.55;107416;1312;23026;-49
2023/07/01 02:57:08;;;;;;;14.60;8.60;;;;;;;17.64;100.00;98312.46;107413;1312;22480;-45
2023/07/01 02:59:33;;;;;;;10.10;8.70;;;;;;;17.65;100.00;98312.36;107403;1312;23016;-50
2023/07/01 03:01:58;;;;;;;10.90;8.30;;;;;;;17.65;100.00;98306.98;107322;1309;154112;-46
2023/07/01 03:04:24;;;;;;;13.30;8.70;;;;;;;17.68;100.00;98309.23;107657;1309;22616;-52
2023/07/01 03:06:49;;;;;;;13.40;8.90;;;;;;;17.69;100.00;98308.74;107638;1309;24445;-48
2023/07/01 03:09:14;;;;;;;9.40;8.50;;;;;;;17.70;100.00;98312.95;107666;1309;22441;-51
2023/07/01 03:11:40;;;;;;;10.40;8.80;;;;;;;17.69;100.00;98307.15;107650;1309;22294;-51
2023/07/01 03:14:05;;;;;;;10.40;8.80;;;;;;;17.69;100.00;98306.09;107676;1309;23251;-49
2023/07/01 03:16:30;;;;;;;13.60;9.40;;;;;;;17.70;100.00;98307.76;107656;1309;22249;-53
2023/07/01 03:18:58;;;;;;;13.90;9.20;;;;;;;17.69;100.00;98309.20;107700;1309;22478;-47
2023/07/01 03:21:25;;;;;;;10.50;9.30;;;;;;;17.70;100.00;98306.22;107717;1309;23256;-50
2023/07/01 03:23:51;;;;;;;12.70;9.60;;;;;;;17.70;100.00;98303.56;107699;1309;22436;-47
2023/07/01 03:26:16;;;;;;;14.20;10.30;;;;;;;17.68;100.00;98301.61;107661;1309;23014;-52
2023/07/01 03:28:42;;;;;;;11.30;9.60;;;;;;;17.68;100.00;98302.84;107714;1309;22257;-52
2023/07/01 03:31:07;;;;;;;15.40;9.40;;;;;;;17.66;100.00;98305.30;107672;1308;22455;-48
2023/07/01 03:33:33;;;;;;;12.40;9.90;;;;;;;17.68;100.00;98303.25;107696;1309;22412;-48
2023/07/01 03:35:59;;;;;;;17.10;11.00;;;;;;;17.69;100.00;98301.02;107713;1309;22342;-50
2023/07/01 03:38:24;;;;;;;13.50;10.60;;;;;;;17.71;100.00;98296.86;107678;1308;22464;-51
2023/07/01 03:40:50;;;;;;;13.80;10.30;;;;;;;17.70;100.00;98295.08;107676;1309;22266;-48
2023/07/01 03:43:15;;;;;;;15.50;10.90;;;;;;;17.69;100.00;98296.90;107682;1309;23124;-51
2023/07/01 03:45:41;;;;;;;19.90;11.60;;;;;;;17.69;100.00;98295.85;107690;1309;23054;-48
2023/07/01 03:48:06;;;;;;;13.40;11.20;;;;;;;17.71;100.00;98294.42;107674;1309;22407;-50
2023/07/01 03:50:31;;;;;;;18.20;11.60;;;;;;;17.73;100.00;98298.48;107679;1309;23463;-50
2023/07/01 03:52:57;;;;;;;24.80;12.70;;;;;;;17.75;100.00;98296.48;107647;1309;23237;-50
2023/07/01 03:55:22;;;;;;;27.00;13.20;;;;;;;17.78;100.00;98299.57;107625;1304;22266;-49
2023/07/01 03:57:47;;;;;;;24.80;12.70;;;;;;;17.77;100.00;98298.57;107631;1309;22338;-49
2023/07/01 04:00:19;;;;;;;19.50;11.80;;;;;;;17.75;100.00;98300.17;107384;1310;22342;-51
2023/07/01 04:02:49;;;;;;;21.00;12.20;;;;;;;17.76;100.00;98304.54;107619;1310;22252;-50
2023/07/01 04:05:15;;;;;;;18.80;13.00;;;;;;;17.77;100.00;98306.88;107621;1310;22727;-52
2023/07/01 04:07:42;;;;;;;20.80;13.30;;;;;;;17.77;100.00;98312.23;107619;1310;22228;-47
2023/07/01 04:10:08;;;;;;;19.70;13.40;;;;;;;17.77;100.00;98315.20;107619;1309;22411;-48
2023/07/01 04:12:35;;;;;;;23.60;14.00;;;;;;;17.79;100.00;98309.74;107628;1310;22670;-52
2023/07/01 04:15:01;;;;;;;23.60;13.40;;;;;;;17.80;100.00;98308.76;107602;1310;22360;-54
2023/07/01 04:17:28;;;;;;;23.30;13.80;;;;;;;17.80;100.00;98306.59;107621;1310;22483;-53
2023/07/01 04:19:53;;;;;;;24.50;14.90;;;;;;;17.82;100.00;98303.25;107605;1310;23261;-54
2023/07/01 04:22:19;;;;;;;27.80;16.20;;;;;;;17.81;100.00;98305.11;107622;1310;22291;-51
2023/07/01 04:24:45;;;;;;;31.00;16.80;;;;;;;17.76;100.00;98307.53;107608;1310;22309;-51
2023/07/01 04:27:10;;;;;;;25.00;16.50;;;;;;;17.76;100.00;98305.96;107599;1310;22615;-48
2023/07/01 04:29:35;;;;;;;27.80;15.70;;;;;;;17.75;100.00;98301.46;107532;1310;22277;-53
2023/07/01 04:32:00;;;;;;;26.20;17.00;;;;;;;17.79;100.00;98301.70;107631;1310;23389;-52
2023/07/01 04:34:26;;;;;;;32.80;17.30;;;;;;;17.82;100.00;98300.96;107601;1310;23161;-49
2023/07/01 04:36:51;;;;;;;27.30;17.50;;;;;;;17.88;100.00;98305.01;107604;1310;22292;-54
2023/07/01 04:39:18;;;;;;;27.80;19.30;;;;;;;17.92;100.00;98303.79;107598;1310;22364;-50
2023/07/01 04:41:44;;;;;;;28.50;19.10;;;;;;;17.95;100.00;98301.94;107570;1310;22271;-51
2023/07/01 04:44:09;;;;;;;28.10;18.10;;;;;;;17.93;100.00;98299.80;107595;1310;22264;-50
2023/07/01 04:46:34;;;;;;;28.30;17.80;;;;;;;17.97;100.00;98301.23;107602;1309;22317;-53
2023/07/01 04:48:59;;;;;;;28.60;19.70;;;;;;;17.95;100.00;98296.10;107608;1310;22228;-53
2023/07/01 04:51:25;;;;;;;30.20;20.30;;;;;;;17.96;100.00;98296.86;107620;1310;23224;-48
2023/07/01 04:53:51;;;;;;;35.60;20.30;;;;;;;18.00;100.00;98299.41;107616;1309;22883;-53
2023/07/01 04:56:16;;;;;;;29.40;19.80;;;;;;;18.08;100.00;98306.34;107613;1310;22210;-52
2023/07/01 04:58:41;;;;;;;38.70;20.70;;;;;;;18.11;100.00;98304.41;107623;1310;22955;-50
2023/07/01 05:01:07;;;;;;;34.70;21.40;;;;;;;18.14;100.00;98304.49;107627;1310;23109;-52
2023/07/01 05:03:32;;;;;;;33.40;21.10;;;;;;;18.16;100.00;98305.70;107599;1309;22432;-52
2023/07/01 05:05:58;;;;;;;34.30;21.10;;;;;;;18.22;100.00;98312.42;107613;1309;23156;-52
2023/07/01 05:08:23;;;;;;;34.60;21.10;;;;;;;18.24;100.00;98315.83;107597;1310;23472;-52
2023/07/01 05:10:49;;;;;;;38.60;22.60;;;;;;;18.24;100.00;98315.27;107610;1310;22984;-55
2023/07/01 05:13:14;;;;;;;35.60;20.10;;;;;;;18.22;100.00;98313.55;107614;1310;22200;-51
2023/07/01 05:15:39;;;;;;;32.00;19.90;;;;;;;18.21;100.00;98315.81;107609;1310;22194;-52
2023/07/01 05:18:04;;;;;;;34.80;21.50;;;;;;;18.16;100.00;98314.48;107617;1309;23247;-51
2023/07/01 05:20:30;;;;;;;27.70;19.80;;;;;;;18.16;100.00;98310.63;107612;1286;23130;-52
2023/07/01 05:22:55;;;;;;;38.10;20.70;;;;;;;18.19;100.00;98314.23;107606;1310;22461;-50
2023/07/01 05:25:20;;;;;;;32.90;21.40;;;;;;;18.19;100.00;98315.30;107580;1309;22251;-51
2023/07/01 05:27:46;;;;;;;33.60;21.20;;;;;;;18.16;100.00;98315.25;107612;1303;22259;-53
2023/07/01 05:30:11;;;;;;;30.20;21.10;;;;;;;18.12;100.00;98310.49;107619;1310;23147;-51
2023/07/01 05:32:36;;;;;;;32.80;20.50;;;;;;;18.14;100.00;98309.78;107609;1309;22422;-51
2023/07/01 05:35:02;;;;;;;28.80;20.20;;;;;;;18.18;100.00;98312.94;107613;1310;22569;-52
2023/07/01 05:37:28;;;;;;;29.80;21.10;;;;;;;18.21;100.00;98311.23;107624;1310;22269;-53
2023/07/01 05:39:53;;;;;;;30.00;20.40;;;;;;;18.24;100.00;98316.23;107609;1310;22247;-53
2023/07/01 05:42:19;;;;;;;29.00;19.80;;;;;;;18.29;100.00;98314.06;107594;1310;22300;-54
2023/07/01 05:44:44;;;;;;;29.30;19.60;;;;;;;18.34;100.00;98317.61;107592;1310;22412;-51
2023/07/01 05:47:09;;;;;;;30.60;19.50;;;;;;;18.42;100.00;98318.02;107614;1310;22947;-53
2023/07/01 05:49:35;;;;;;;26.90;19.10;;;;;;;18.49;100.00;98312.73;107640;1309;22257;-53
2023/07/01 05:52:00;;;;;;;28.00;18.90;;;;;;;18.54;100.00;98315.19;107644;1309;22237;-53
2023/07/01 05:54:25;;;;;;;26.40;17.50;;;;;;;18.60;100.00;98317.08;107654;1309;22331;-55
2023/07/01 05:56:50;;;;;;;22.80;16.50;;;;;;;18.64;100.00;98317.92;107636;1309;23258;-53
2023/07/01 05:59:16;;;;;;;23.00;17.00;;;;;;;18.73;100.00;98323.21;107659;1298;22266;-52
2023/07/01 06:01:41;;;;;;;29.20;18.10;;;;;;;18.83;100.00;98324.27;107641;1309;22321;-52
2023/07/01 06:04:06;;;;;;;27.40;17.60;;;;;;;18.95;100.00;98329.11;107649;1309;22235;-50
2023/07/01 06:06:32;;;;;;;20.40;14.90;;;;;;;19.04;100.00;98328.35;107655;1309;22916;-52
2023/07/01 06:08:57;;;;;;;24.30;15.30;;;;;;;19.08;100.00;98327.36;107686;1309;22230;-51
2023/07/01 06:11:22;;;;;;;20.70;14.20;;;;;;;19.12;100.00;98330.13;107668;1309;22259;-49
2023/07/01 06:13:48;;;;;;;18.30;13.70;;;;;;;19.13;100.00;98331.77;107649;1309;23057;-53
2023/07/01 06:16:14;;;;;;;18.90;14.10;;;;;;;19.16;100.00;98331.67;107445;1309;22209;-51
2023/07/01 06:18:40;;;;;;;19.60;14.80;;;;;;;19.21;100.00;98331.55;107656;1309;23308;-52
2023/07/01 06:21:06;;;;;;;18.70;14.20;;;;;;;19.17;100.00;98335.47;107662;1309;22656;-53
2023/07/01 06:23:32;;;;;;;20.10;14.60;;;;;;;19.16;100.00;98336.66;107675;1309;22309;-50
2023/07/01 06:25:58;;;;;;;21.70;14.10;;;;;;;19.11;100.00;98334.62;107647;1309;22986;-53
2023/07/01 06:28:23;;;;;;;19.00;12.60;;;;;;;19.06;100.00;98334.71;107639;1309;22205;-51
2023/07/01 06:30:48;;;;;;;17.50;12.10;;;;;;;19.06;100.00;98336.11;107677;1309;22362;-53
2023/07/01 06:33:14;;;;;;;17.30;12.60;;;;;;;19.05;100.00;98336.08;107639;1309;23374;-50
2023/07/01 06:35:42;;;;;;;14.40;12.30;;;;;;;19.10;100.00;98335.55;107627;1309;22172;-54
2023/07/01 06:38:09;;;;;;;15.50;12.00;;;;;;;19.16;100.00;98339.54;107642;1309;22809;-55
2023/07/01 06:40:34;;;;;;;20.70;13.20;;;;;;;19.23;99.98;98339.19;107657;1309;22254;-49
2023/07/01 06:42:59;;;;;;;15.10;11.50;;;;;;;19.32;99.98;98338.73;107632;1309;22438;-53
2023/07/01 06:45:25;;;;;;;20.90;13.10;;;;;;;19.37;99.65;98335.70;107630;1309;22283;-52
2023/07/01 06:47:50;;;;;;;23.60;13.60;;;;;;;19.37;99.20;98336.32;107657;1309;22432;-49
2023/07/01 06:50:16;;;;;;;26.20;14.10;;;;;;;19.39;99.09;98335.45;107618;1309;22272;-51
2023/07/01 06:52:41;;;;;;;24.30;14.60;;;;;;;19.39;98.81;98339.89;107631;1309;22220;-55
2023/07/01 06:55:07;;;;;;;23.80;14.30;;;;;;;19.35;98.73;98338.54;107635;1309;24187;-52
2023/07/01 06:57:33;;;;;;;20.40;13.80;;;;;;;19.32;98.66;98336.20;107638;1309;22252;-52
2023/07/01 06:59:59;;;;;;;19.70;13.30;;;;;;;19.36;98.44;98329.71;107656;1309;22408;-54
2023/07/01 07:02:25;;;;;;;20.90;12.70;;;;;;;19.44;98.65;98323.75;107640;1309;22182;-51
2023/07/01 07:04:52;;;;;;;20.40;13.00;;;;;;;19.56;98.39;98321.04;107655;1309;22244;-50
2023/07/01 07:07:18;;;;;;;18.00;13.00;;;;;;;19.65;97.47;98319.88;107655;1309;22476;-53
2023/07/01 07:09:44;;;;;;;19.70;12.90;;;;;;;19.73;96.86;98318.86;107663;1309;22225;-53
2023/07/01 07:12:09;;;;;;;17.90;12.70;;;;;;;19.82;95.94;98327.80;107651;1298;22290;-50
2023/07/01 07:14:34;;;;;;;24.80;12.50;;;;;;;20.03;95.53;98329.33;107658;1309;22259;-50
2023/07/01 07:16:59;;;;;;;20.80;11.20;;;;;;;20.14;92.57;98332.02;107647;1309;22503;-51
2023/07/01 07:19:25;;;;;;;16.60;11.20;;;;;;;20.28;93.25;98335.77;107657;1309;22480;-51
2023/07/01 07:21:50;;;;;;;16.90;11.30;;;;;;;20.34;92.69;98331.85;107646;1309;22232;-52
2023/07/01 07:24:15;;;;;;;15.00;10.60;;;;;;;20.41;92.90;98328.97;107676;1309;22978;-47
2023/07/01 07:26:42;;;;;;;15.80;10.70;;;;;;;20.58;92.99;98326.63;107636;1309;23166;-54
2023/07/01 07:29:07;;;;;;;15.90;11.20;;;;;;;20.64;90.66;98325.77;107658;1309;22956;-50
2023/07/01 07:31:32;;;;;;;18.90;12.00;;;;;;;20.66;88.36;98322.07;107659;1309;23072;-52
2023/07/01 07:33:58;;;;;;;18.00;11.90;;;;;;;20.67;87.71;98319.63;107638;1309;22256;-51
2023/07/01 07:36:23;;;;;;;17.20;12.00;;;;;;;20.71;86.78;98317.61;107642;1309;22398;-47
2023/07/01 07:38:48;;;;;;;21.80;11.60;;;;;;;20.84;88.20;98317.81;107657;1309;22172;-53
2023/07/01 07:41:13;;;;;;;16.70;11.30;;;;;;;20.92;87.62;98320.27;107649;1309;22433;-51
2023/07/01 07:43:39;;;;;;;15.40;11.00;;;;;;;20.98;87.18;98318.82;107636;1309;23005;-52
2023/07/01 07:46:04;;;;;;;16.70;11.30;;;;;;;21.08;87.12;98318.80;107677;1309;22362;-52
2023/07/01 07:48:29;;;;;;;19.50;12.10;;;;;;;21.17;87.14;98322.27;107647;1309;22266;-52
2023/07/01 07:50:55;;;;;;;15.90;10.80;;;;;;;21.22;86.50;98325.93;107672;1309;23123;-48
2023/07/01 07:53:20;;;;;;;15.40;10.60;;;;;;;21.23;85.67;98324.27;107638;1309;22470;-49
2023/07/01 07:55:45;;;;;;;20.20;11.50;;;;;;;21.26;85.66;98328.31;107661;1309;23079;-50
2023/07/01 07:58:11;;;;;;;18.60;10.80;;;;;;;21.30;85.78;98328.02;107667;1309;22236;-47
2023/07/01 08:00:36;;;;;;;16.30;11.00;;;;;;;21.28;84.68;98329.91;107669;1309;23186;-53
2023/07/01 08:03:01;;;;;;;18.80;11.10;;;;;;;21.25;84.89;98331.27;107681;1309;22246;-51
2023/07/01 08:05:27;;;;;;;15.30;11.30;;;;;;;21.17;84.45;98329.95;107662;1309;22074;-48
2023/07/01 08:07:53;;;;;;;17.40;10.30;;;;;;;21.02;84.41;98326.21;107687;1309;22425;-51
2023/07/01 08:10:18;;;;;;;16.40;10.00;;;;;;;21.00;85.16;98327.34;107663;1309;23136;-45
2023/07/01 08:12:44;;;;;;;14.60;10.90;;;;;;;21.02;84.91;98333.58;107683;1309;23054;-52
2023/07/01 08:15:09;;;;;;;19.40;11.20;;;;;;;21.00;84.53;98332.92;107659;1309;22522;-52
2023/07/01 08:17:35;;;;;;;17.50;10.90;;;;;;;21.09;85.26;98332.09;107654;1301;22270;-51
2023/07/01 08:20:01;;;;;;;16.30;11.00;;;;;;;21.23;85.74;98334.19;107658;1309;22328;-54
2023/07/01 08:22:26;;;;;;;18.50;10.90;;;;;;;21.27;84.36;98331.75;107664;1309;22461;-48
2023/07/01 08:24:51;;;;;;;13.80;10.40;;;;;;;21.21;83.68;98331.64;107662;1309;22256;-51
2023/07/01 08:27:17;;;;;;;18.30;11.60;;;;;;;21.21;83.32;98335.86;107681;1309;22469;-55
2023/07/01 08:29:42;;;;;;;16.30;10.70;;;;;;;21.26;83.09;98335.07;107677;1309;23296;-50
2023/07/01 08:32:08;;;;;;;15.60;10.50;;;;;;;21.16;82.90;98335.73;107685;1309;22456;-50
2023/07/01 08:34:35;;;;;;;13.90;9.90;;;;;;;21.11;82.87;98330.45;107670;1309;22251;-49
2023/07/01 08:37:00;;;;;;;13.60;9.60;;;;;;;21.16;83.04;98333.90;107673;1309;22539;-49
2023/07/01 08:39:26;;;;;;;18.50;10.80;;;;;;;21.07;82.69;98338.16;107676;1309;22967;-51
2023/07/01 08:42:02;;;;;;;14.30;10.20;;;;;;;21.20;82.59;98343.63;107670;1309;22457;-51
2023/07/01 08:44:28;;;;;;;14.70;9.80;;;;;;;21.37;82.66;98341.69;107672;1309;22466;-52
2023/07/01 08:46:55;;;;;;;11.40;8.70;;;;;;;21.48;81.90;98339.36;107668;1309;22222;-51
2023/07/01 08:49:24;;;;;;;12.10;8.40;;;;;;;21.65;79.97;98340.25;107698;1309;22457;-51
2023/07/01 08:51:55;;;;;;;9.70;8.40;;;;;;;21.75;77.35;98337.49;107690;1309;22930;-50
2023/07/01 08:54:20;;;;;;;10.30;7.70;;;;;;;21.80;76.64;98335.14;107682;1309;22273;-53
2023/07/01 08:56:49;;;;;;;14.80;8.10;;;;;;;22.02;77.74;98334.52;107670;1309;22434;-51
2023/07/01 08:59:15;;;;;;;10.80;7.70;;;;;;;22.23;76.04;98332.27;107686;1309;22381;-53
2023/07/01 09:01:43;;;;;;;11.60;8.20;;;;;;;22.35;73.63;98332.05;107677;1309;22351;-53
2023/07/01 09:04:08;;;;;;;11.30;7.70;;;;;;;22.59;74.84;98327.52;107662;1309;22229;-49
2023/07/01 09:06:33;;;;;;;11.60;8.10;;;;;;;22.82;73.58;98325.91;107674;1309;22465;-52
2023/07/01 09:09:01;;;;;;;11.00;8.30;;;;;;;22.97;71.89;98322.44;107690;1309;22250;-50
2023/07/01 09:11:26;;;;;;;;;;;;;;;23.18;73.09;98319.59;107707;1309;22463;-52
2023/07/01 09:13:58;;;;;;;14.40;8.00;;;;;;;23.36;72.55;98314.40;107664;1309;22966;-53
2023/07/01 09:16:34;;;;;;;10.60;7.70;;;;;;;23.59;71.49;98312.63;107690;1309;22227;-51
2023/07/01 09:19:04;;;;;;;13.80;8.50;;;;;;;23.92;69.94;98313.80;107692;1302;22244;-52
2023/07/01 09:21:32;;;;;;;11.20;8.20;;;;;;;23.95;67.64;98317.30;107680;1309;22601;-52
2023/07/01 09:23:57;;;;;;;10.90;7.70;;;;;;;23.71;65.72;98312.36;107694;1309;22304;-55
2023/07/01 09:26:23;;;;;;;13.00;8.10;;;;;;;23.63;67.30;98312.74;107685;1309;23093;-53
2023/07/01 09:28:53;;;;;;;12.10;7.90;;;;;;;23.90;67.35;98311.31;107330;1309;23351;-54
2023/07/01 09:31:18;;;;;;;10.60;8.00;;;;;;;24.35;65.95;98308.41;107698;1309;22251;-51
2023/07/01 09:33:57;;;;;;;10.60;7.20;;;;;;;24.75;65.16;98304.77;107682;1309;22316;-52
2023/07/01 09:36:27;;;;;;;11.80;8.10;;;;;;;25.15;64.10;98298.95;107695;1309;23198;-52
2023/07/01 09:38:53;;;;;;;10.80;7.40;;;;;;;25.54;61.42;98298.13;107673;1309;22344;-53
2023/07/01 09:41:23;;;;;;;8.50;7.20;;;;;;;25.90;60.21;98299.58;107682;1309;22529;-49
2023/07/01 09:43:48;;;;;;;10.80;7.00;;;;;;;26.14;59.95;98296.66;107693;1309;22472;-50
2023/07/01 09:46:14;;;;;;;12.20;7.50;;;;;;;26.03;60.30;98294.51;107671;1309;22320;-52
2023/07/01 09:48:52;;;;;;;11.90;7.30;;;;;;;25.63;61.04;98287.65;107686;1309;22710;-50
2023/07/01 09:51:18;;;;;;;10.10;8.00;;;;;;;25.08;61.74;98283.65;107657;1309;22402;-49
2023/07/01 09:53:43;;;;;;;13.70;8.00;;;;;;;24.75;63.48;98281.19;107715;1309;22412;-50
2023/07/01 09:56:09;;;;;;;11.10;7.10;;;;;;;24.45;64.71;98284.61;107708;1309;23076;-54
2023/07/01 09:58:35;;;;;;;11.70;7.40;;;;;;;24.16;65.13;98285.30;107687;1309;22267;-52
2023/07/01 10:01:00;;;;;;;14.30;7.70;;;;;;;23.81;65.92;98280.91;107687;1309;22272;-48
2023/07/01 10:03:26;;;;;;;12.40;8.00;;;;;;;23.49;66.33;98281.98;107685;1309;22468;-52
2023/07/01 10:05:52;;;;;;;10.70;7.70;;;;;;;23.08;67.73;98279.79;107697;1309;22254;-52
2023/07/01 10:08:18;;;;;;;11.90;7.80;;;;;;;22.87;68.65;98275.45;107708;1309;22235;-49
2023/07/01 10:10:44;;;;;;;11.00;7.70;;;;;;;22.64;69.43;98275.67;107697;1309;22350;-52
2023/07/01 10:13:12;;;;;;;10.10;7.70;;;;;;;22.53;69.80;98277.06;107721;1309;23313;-49
2023/07/01 10:15:39;;;;;;;12.50;8.70;;;;;;;22.44;70.51;98278.30;107694;1309;23137;-51
2023/07/01 10:18:20;;;;;;;13.70;7.40;;;;;;;22.38;71.17;98277.45;107666;1309;23137;-50
2023/07/01 10:20:46;;;;;;;10.60;7.80;;;;;;;22.22;71.30;98276.63;107694;1309;22312;-51
2023/07/01 10:23:11;;;;;;;11.60;7.40;;;;;;;22.21;71.49;98273.65;107679;1309;22493;-49
2023/07/01 10:25:40;;;;;;;9.50;7.90;;;;;;;22.22;72.24;98271.80;107696;1309;22251;-52
2023/07/01 10:28:12;;;;;;;11.40;8.30;;;;;;;22.30;71.58;98270.70;107705;1309;22414;-54
2023/07/01 10:30:46;;;;;;;9.80;8.20;;;;;;;22.22;71.41;98274.27;107691;1309;22335;-51
2023/07/01 10:33:30;;;;;;;12.90;8.10;;;;;;;22.30;71.49;98273.01;107697;1309;22419;-48
2023/07/01 10:36:07;;;;;;;11.90;7.80;;;;;;;22.37;71.13;98275.75;107689;1309;23054;-52
2023/07/01 10:38:35;;;;;;;15.00;8.20;;;;;;;22.39;71.30;98268.60;107624;1301;22296;-49
2023/07/01 10:41:00;;;;;;;;;;;;;;;22.32;71.64;98267.80;107570;1304;22477;-53
2023/07/01 10:43:37;;;;;;;9.30;7.20;;;;;;;22.35;71.93;98262.24;107662;1292;22355;-53
2023/07/01 10:46:21;;;;;;;14.90;7.80;;;;;;;22.40;70.94;98256.63;107674;1305;23096;-49
2023/07/01 10:49:02;;;;;;;11.10;7.90;;;;;;;22.40;70.95;98251.23;107653;1304;22229;-52
2023/07/01 10:51:28;;;;;;;14.10;8.40;;;;;;;22.50;70.78;98247.23;107691;1309;22480;-52
2023/07/01 10:54:04;;;;;;;9.20;7.50;;;;;;;22.63;70.24;98247.99;107659;1307;22421;-53
2023/07/01 10:56:30;;;;;;;11.90;7.80;;;;;;;22.83;70.48;98252.15;107671;1303;22495;-52
2023/07/01 10:59:17;;;;;;;11.00;7.80;;;;;;;23.01;69.72;98244.56;107708;1301;22438;-51
2023/07/01 11:01:45;;;;;;;11.20;8.20;;;;;;;23.48;70.25;98249.99;107688;1301;23431;-49
2023/07/01 11:04:10;;;;;;;13.20;8.20;;;;;;;24.42;66.87;98244.70;107547;1308;22310;-54
2023/07/01 11:06:50;;;;;;;11.70;7.90;;;;;;;25.19;62.38;98238.20;107545;1310;22261;-52
2023/07/01 11:09:27;;;;;;;8.50;7.10;;;;;;;26.00;63.05;98237.88;107543;1310;22614;-50
2023/07/01 11:11:53;;;;;;;10.20;7.30;;;;;;;26.56;58.58;98240.61;107554;1310;22278;-54
2023/07/01 11:14:20;;;;;;;12.50;8.70;;;;;;;26.56;57.61;98238.30;107560;1310;22993;-51